Redwood City, California
Current Conditions -  °F | °C
As of 9:35 PM on Friday 24 Oct 2014 (Local Time) from KSQL Reporting Station
Clear Clear  
Wind Chill: 64°   Ceiling: Unl
Heat Index: 64°   Visibility: 10mi
Dew Point: 54°   Wind: 14mph
Humidity: 68%   Direction: 160°SSE
Pressure: 29.92"   Gusts: 20mph
Location:  37.48°N, 122.22°W
Report Text: KSQL 250435Z AUTO 16012G17KT 10SM CLR 18/12 A2992 RMK AO2
Loading
Personal Weather Stations






























Interactive Weather Map
Tropical Storm Tracking
New forecast layout! Learn more

10-Day Weather Forecast

Advertisements
Track Severe Weather on mobile